Time,TemperatureF,DewpointF,PressureIn,WindDirection,WindDirectionDegrees,WindSpeedMPH,WindSpeedGustMPH,Humidity,HourlyPrecipIn,Conditions,Clouds,dailyrainin,SolarRadiationWatts/m^2,SoftwareType,DateUTC
2013-02-16 00:01:00,27.0,25.0,-100.00,SW,218,2.0,4.0,91,0.00,,,0.00,1.000000,,2013-02-16 07:01:00,
2013-02-16 00:32:00,27.0,25.0,-100.00,SW,218,2.0,4.0,91,0.00,,,0.00,1.000000,,2013-02-16 07:32:00,
2013-02-16 00:42:00,27.0,25.0,-100.00,SW,218,2.0,4.0,91,0.00,,,0.00,1.000000,,2013-02-16 07:42:00,
2013-02-16 00:53:00,27.0,25.0,-100.00,SW,218,2.0,4.0,91,0.00,,,0.00,1.000000,,2013-02-16 07:53:00,
2013-02-16 01:01:00,27.0,26.0,-100.00,SW,226,2.0,4.0,94,0.00,,,0.00,1.000000,,2013-02-16 08:01:00,
2013-02-16 01:32:00,27.0,26.0,-100.00,SW,226,2.0,4.0,94,0.00,,,0.00,1.000000,,2013-02-16 08:32:00,
2013-02-16 01:42:00,27.0,26.0,-100.00,SW,226,2.0,4.0,94,0.00,,,0.00,1.000000,,2013-02-16 08:42:00,
2013-02-16 01:52:00,27.0,26.0,-100.00,SW,226,2.0,4.0,94,0.00,,,0.00,1.000000,,2013-02-16 08:52:00,
2013-02-16 03:01:00,27.0,26.0,-100.00,SW,222,2.0,3.0,95,-99.99,,,0.00,1.000000,,2013-02-16 10:01:00,
2013-02-16 03:32:00,27.0,26.0,-100.00,SW,222,2.0,3.0,95,-99.99,,,0.00,1.000000,,2013-02-16 10:32:00,
2013-02-16 03:42:00,27.0,26.0,-100.00,SW,222,2.0,3.0,95,-99.99,,,0.00,1.000000,,2013-02-16 10:42:00,
2013-02-16 03:52:00,27.0,26.0,-100.00,SW,222,2.0,3.0,95,-99.99,,,0.00,1.000000,,2013-02-16 10:52:00,
2013-02-16 04:01:00,26.0,25.0,-100.00,WSW,249,2.0,4.0,94,0.00,,,0.00,1.000000,,2013-02-16 11:01:00,
2013-02-16 04:32:00,26.0,25.0,-100.00,WSW,249,2.0,4.0,94,0.00,,,0.00,1.000000,,2013-02-16 11:32:00,
2013-02-16 04:42:00,26.0,25.0,-100.00,WSW,249,2.0,4.0,94,0.00,,,0.00,1.000000,,2013-02-16 11:42:00,
2013-02-16 04:52:00,26.0,25.0,-100.00,WSW,249,2.0,4.0,94,0.00,,,0.00,1.000000,,2013-02-16 11:52:00,
2013-02-16 05:01:00,25.0,24.0,-100.00,SW,234,1.0,3.0,95,0.00,,,0.00,1.000000,,2013-02-16 12:01:00,
2013-02-16 05:22:00,25.0,24.0,-100.00,SW,234,1.0,3.0,95,0.00,,,0.00,1.000000,,2013-02-16 12:22:00,
2013-02-16 05:32:00,25.0,24.0,-100.00,SW,234,1.0,3.0,95,0.00,,,0.00,1.000000,,2013-02-16 12:32:00,
2013-02-16 05:42:00,25.0,24.0,-100.00,SW,234,1.0,3.0,95,0.00,,,0.00,1.000000,,2013-02-16 12:42:00,
2013-02-16 05:52:00,25.0,24.0,-100.00,SW,234,1.0,3.0,95,0.00,,,0.00,1.000000,,2013-02-16 12:52:00,
2013-02-16 07:01:00,24.0,23.0,-100.00,WSW,239,1.0,3.0,95,-99.99,,,0.00,1.000000,,2013-02-16 14:01:00,
2013-02-16 07:32:00,24.0,23.0,-100.00,WSW,239,1.0,3.0,95,-99.99,,,0.00,1.000000,,2013-02-16 14:32:00,
2013-02-16 07:42:00,24.0,23.0,-100.00,WSW,239,1.0,3.0,95,-99.99,,,0.00,1.000000,,2013-02-16 14:42:00,
2013-02-16 07:52:00,24.0,23.0,-100.00,WSW,239,1.0,3.0,95,-99.99,,,0.00,1.000000,,2013-02-16 14:52:00,
2013-02-16 08:01:00,24.0,23.0,-100.00,WSW,237,1.0,2.0,95,0.00,,,0.00,3.000000,,2013-02-16 15:01:00,
2013-02-16 08:22:00,24.0,23.0,-100.00,WSW,237,1.0,2.0,95,0.00,,,0.00,3.000000,,2013-02-16 15:22:00,
2013-02-16 08:32:00,24.0,23.0,-100.00,WSW,237,1.0,2.0,95,0.00,,,0.00,3.000000,,2013-02-16 15:32:00,
2013-02-16 08:42:00,24.0,23.0,-100.00,WSW,237,1.0,2.0,95,0.00,,,0.00,3.000000,,2013-02-16 15:42:00,
2013-02-16 08:52:00,24.0,23.0,-100.00,WSW,237,1.0,2.0,95,0.00,,,0.00,3.000000,,2013-02-16 15:52:00,
2013-02-16 09:01:00,27.0,26.0,-100.00,SE,144,1.0,3.0,95,0.00,,,0.00,32.000000,,2013-02-16 16:01:00,
2013-02-16 09:32:00,27.0,26.0,-100.00,SE,144,1.0,3.0,95,0.00,,,0.00,32.000000,,2013-02-16 16:32:00,
2013-02-16 09:42:00,27.0,26.0,-100.00,SE,144,1.0,3.0,95,0.00,,,0.00,32.000000,,2013-02-16 16:42:00,
2013-02-16 09:52:00,27.0,26.0,-100.00,SE,144,1.0,3.0,95,0.00,,,0.00,32.000000,,2013-02-16 16:52:00,
2013-02-16 10:01:00,33.0,29.0,-100.00,East,101,2.0,3.0,85,0.00,,,0.00,193.000000,,2013-02-16 17:01:00,
2013-02-16 10:22:00,33.0,29.0,-100.00,East,101,2.0,3.0,85,0.00,,,0.00,193.000000,,2013-02-16 17:22:00,
2013-02-16 10:32:00,33.0,29.0,-100.00,East,101,2.0,3.0,85,0.00,,,0.00,193.000000,,2013-02-16 17:32:00,
2013-02-16 10:42:00,33.0,29.0,-100.00,East,101,2.0,3.0,85,0.00,,,0.00,193.000000,,2013-02-16 17:42:00,
2013-02-16 10:52:00,33.0,29.0,-100.00,East,101,2.0,3.0,85,0.00,,,0.00,193.000000,,2013-02-16 17:52:00,
2013-02-16 11:01:00,36.0,30.0,-100.00,North,0,3.0,6.0,78,0.00,,,0.00,391.000000,,2013-02-16 18:01:00,
2013-02-16 11:33:00,36.0,30.0,-100.00,North,0,3.0,6.0,78,0.00,,,0.00,391.000000,,2013-02-16 18:33:00,
2013-02-16 11:42:00,36.0,30.0,-100.00,North,0,3.0,6.0,78,0.00,,,0.00,391.000000,,2013-02-16 18:42:00,
2013-02-16 11:52:00,36.0,30.0,-100.00,North,0,3.0,6.0,78,0.00,,,0.00,391.000000,,2013-02-16 18:52:00,
2013-02-16 12:01:00,39.0,30.0,-100.00,ESE,105,3.0,5.0,69,0.00,,,0.00,422.000000,,2013-02-16 19:01:00,
2013-02-16 12:32:00,39.0,30.0,-100.00,ESE,105,3.0,5.0,69,0.00,,,0.00,422.000000,,2013-02-16 19:32:00,
2013-02-16 12:42:00,39.0,30.0,-100.00,ESE,105,3.0,5.0,69,0.00,,,0.00,422.000000,,2013-02-16 19:42:00,
2013-02-16 12:52:00,39.0,30.0,-100.00,ESE,105,3.0,5.0,69,0.00,,,0.00,422.000000,,2013-02-16 19:52:00,
2013-02-16 13:01:00,37.0,28.0,-100.00,North,4,2.0,6.0,70,0.00,,,0.00,210.000000,,2013-02-16 20:01:00,
2013-02-16 13:32:00,37.0,28.0,-100.00,North,4,2.0,6.0,70,0.00,,,0.00,210.000000,,2013-02-16 20:32:00,
2013-02-16 13:42:00,37.0,28.0,-100.00,North,4,2.0,6.0,70,0.00,,,0.00,210.000000,,2013-02-16 20:42:00,
2013-02-16 13:52:00,37.0,28.0,-100.00,North,4,2.0,6.0,70,0.00,,,0.00,210.000000,,2013-02-16 20:52:00,
2013-02-16 14:01:00,38.0,30.0,-100.00,North,4,3.0,6.0,72,0.00,,,0.00,155.000000,,2013-02-16 21:01:00,
2013-02-16 14:32:00,38.0,30.0,-100.00,North,4,3.0,6.0,72,0.00,,,0.00,155.000000,,2013-02-16 21:32:00,
2013-02-16 14:42:00,38.0,30.0,-100.00,North,4,3.0,6.0,72,0.00,,,0.00,155.000000,,2013-02-16 21:42:00,
2013-02-16 14:52:00,38.0,30.0,-100.00,North,4,3.0,6.0,72,0.00,,,0.00,155.000000,,2013-02-16 21:52:00,
2013-02-16 15:01:00,44.0,33.0,-100.00,NNE,19,4.0,7.0,66,0.00,,,0.00,293.000000,,2013-02-16 22:01:00,
2013-02-16 15:32:00,44.0,33.0,-100.00,NNE,19,4.0,7.0,66,0.00,,,0.00,293.000000,,2013-02-16 22:32:00,
2013-02-16 15:42:00,44.0,33.0,-100.00,NNE,19,4.0,7.0,66,0.00,,,0.00,293.000000,,2013-02-16 22:42:00,
2013-02-16 15:52:00,44.0,33.0,-100.00,NNE,19,4.0,7.0,66,0.00,,,0.00,293.000000,,2013-02-16 22:52:00,
2013-02-16 16:01:00,39.0,27.0,-100.00,North,11,3.0,9.0,63,0.00,,,0.00,222.000000,,2013-02-16 23:01:00,
2013-02-16 16:32:00,39.0,27.0,-100.00,North,11,3.0,9.0,63,0.00,,,0.00,222.000000,,2013-02-16 23:32:00,
2013-02-16 16:42:00,39.0,27.0,-100.00,North,11,3.0,9.0,63,0.00,,,0.00,222.000000,,2013-02-16 23:42:00,
2013-02-16 16:52:00,39.0,27.0,-100.00,North,11,3.0,9.0,63,0.00,,,0.00,222.000000,,2013-02-16 23:52:00,
2013-02-16 17:01:00,40.0,28.0,-100.00,SSE,158,1.0,5.0,63,0.00,,,0.00,100.000000,,2013-02-17 00:01:00,
2013-02-16 17:22:00,40.0,28.0,-100.00,SSE,158,1.0,5.0,63,0.00,,,0.00,100.000000,,2013-02-17 00:22:00,
2013-02-16 17:32:00,40.0,28.0,-100.00,SSE,158,1.0,5.0,63,0.00,,,0.00,100.000000,,2013-02-17 00:32:00,
2013-02-16 17:42:00,40.0,28.0,-100.00,SSE,158,1.0,5.0,63,0.00,,,0.00,100.000000,,2013-02-17 00:42:00,
2013-02-16 17:52:00,40.0,28.0,-100.00,SSE,158,1.0,5.0,63,0.00,,,0.00,100.000000,,2013-02-17 00:52:00,
2013-02-16 18:01:00,38.0,29.0,-100.00,WNW,292,2.0,4.0,69,0.00,,,0.00,25.000000,,2013-02-17 01:01:00,
2013-02-16 18:32:00,38.0,29.0,-100.00,WNW,292,2.0,4.0,69,0.00,,,0.00,25.000000,,2013-02-17 01:32:00,
2013-02-16 18:42:00,38.0,29.0,-100.00,WNW,292,2.0,4.0,69,0.00,,,0.00,25.000000,,2013-02-17 01:42:00,
2013-02-16 18:52:00,38.0,29.0,-100.00,WNW,292,2.0,4.0,69,0.00,,,0.00,25.000000,,2013-02-17 01:52:00,
2013-02-16 19:01:00,35.0,30.0,-100.00,NNW,327,2.0,4.0,81,0.00,,,0.00,1.000000,,2013-02-17 02:01:00,
2013-02-16 19:32:00,35.0,30.0,-100.00,NNW,327,2.0,4.0,81,0.00,,,0.00,1.000000,,2013-02-17 02:32:00,
2013-02-16 19:42:00,35.0,30.0,-100.00,NNW,327,2.0,4.0,81,0.00,,,0.00,1.000000,,2013-02-17 02:42:00,
2013-02-16 19:52:00,35.0,30.0,-100.00,NNW,327,2.0,4.0,81,0.00,,,0.00,1.000000,,2013-02-17 02:52:00,
2013-02-16 20:01:00,40.0,35.0,-100.00,NW,306,4.0,8.0,81,0.02,,,0.02,1.000000,,2013-02-17 03:01:00,
2013-02-16 20:21:00,40.0,35.0,-100.00,NW,306,4.0,8.0,81,0.02,,,0.02,1.000000,,2013-02-17 03:21:00,
2013-02-16 20:32:00,40.0,35.0,-100.00,NW,306,4.0,8.0,81,0.02,,,0.02,1.000000,,2013-02-17 03:32:00,
2013-02-16 20:42:00,40.0,35.0,-100.00,NW,306,4.0,8.0,81,0.02,,,0.02,1.000000,,2013-02-17 03:42:00,
2013-02-16 20:52:00,40.0,35.0,-100.00,NW,306,4.0,8.0,81,0.02,,,0.02,1.000000,,2013-02-17 03:52:00,
2013-02-16 21:01:00,37.0,32.0,-100.00,WNW,282,3.0,16.0,81,0.02,,,-99.99,1.000000,,2013-02-17 04:01:00,
2013-02-16 21:32:00,37.0,32.0,-100.00,WNW,282,3.0,16.0,81,0.02,,,-99.99,1.000000,,2013-02-17 04:32:00,
2013-02-16 21:42:00,37.0,32.0,-100.00,WNW,282,3.0,16.0,81,0.02,,,-99.99,1.000000,,2013-02-17 04:42:00,
2013-02-16 21:52:00,37.0,32.0,-100.00,WNW,282,3.0,16.0,81,0.02,,,-99.99,1.000000,,2013-02-17 04:52:00,
2013-02-16 22:01:00,36.0,33.0,-100.00,NNW,333,2.0,7.0,87,0.00,,,0.04,1.000000,,2013-02-17 05:01:00,
2013-02-16 22:33:00,36.0,33.0,-100.00,NNW,333,2.0,7.0,87,0.00,,,0.04,1.000000,,2013-02-17 05:33:00,
2013-02-16 22:42:00,36.0,33.0,-100.00,NNW,333,2.0,7.0,87,0.00,,,0.04,1.000000,,2013-02-17 05:42:00,
2013-02-16 22:52:00,36.0,33.0,-100.00,NNW,333,2.0,7.0,87,0.00,,,0.04,1.000000,,2013-02-17 05:52:00,
2013-02-16 23:01:00,34.0,32.0,-100.00,SSE,161,2.0,8.0,91,0.00,,,0.04,1.000000,,2013-02-17 06:01:00,
2013-02-16 23:21:00,34.0,32.0,-100.00,SSE,161,2.0,8.0,91,0.00,,,0.04,1.000000,,2013-02-17 06:21:00,
2013-02-16 23:32:00,34.0,32.0,-100.00,SSE,161,2.0,8.0,91,0.00,,,0.04,1.000000,,2013-02-17 06:32:00,
2013-02-16 23:42:00,34.0,32.0,-100.00,SSE,161,2.0,8.0,91,0.00,,,0.04,1.000000,,2013-02-17 06:42:00,
2013-02-16 23:52:00,34.0,32.0,-100.00,SSE,161,2.0,8.0,91,0.00,,,0.04,1.000000,,2013-02-17 06:52:00,